createdAt,value
2019-02-02T00:02:00.133Z,20.00
2019-02-02T00:04:29.142Z,21.37
2019-02-02T00:09:31.261Z,20.20
2019-02-02T00:12:00.166Z,20.17
2019-02-02T00:14:29.027Z,21.50
2019-02-02T00:16:57.934Z,21.37
2019-02-02T00:19:27.112Z,20.23
2019-02-02T00:21:56.119Z,20.90
2019-02-02T00:24:25.008Z,21.07
2019-02-02T00:26:54.174Z,21.90
2019-02-02T00:29:23.342Z,20.93
2019-02-02T00:31:52.306Z,20.10
2019-02-02T00:34:21.204Z,21.03
2019-02-02T00:36:50.213Z,21.93
2019-02-02T00:39:19.580Z,21.43
2019-02-02T00:41:48.555Z,22.27
2019-02-02T00:44:17.487Z,22.00
2019-02-02T00:46:46.402Z,22.40
2019-02-02T00:49:15.451Z,22.90
2019-02-02T00:51:44.314Z,23.33
2019-02-02T00:54:13.267Z,22.77
2019-02-02T00:56:42.219Z,22.57
2019-02-02T00:59:11.293Z,22.23
2019-02-02T01:04:21.776Z,23.67
2019-02-02T01:06:50.715Z,23.00
2019-02-02T01:09:22.404Z,23.77
2019-02-02T01:11:51.307Z,24.93
2019-02-02T01:14:20.465Z,24.87
2019-02-02T01:16:49.497Z,24.20
2019-02-02T01:19:19.178Z,23.70
2019-02-02T01:21:48.179Z,26.30
2019-02-02T01:24:17.123Z,24.37
2019-02-02T01:26:46.394Z,25.27
2019-02-02T01:29:15.387Z,26.00
2019-02-02T01:31:44.373Z,26.23
2019-02-02T01:34:13.411Z,25.03
2019-02-02T01:36:42.256Z,27.47
2019-02-02T01:39:11.372Z,26.27
2019-02-02T01:41:40.448Z,26.27
2019-02-02T01:44:09.452Z,25.20
2019-02-02T01:46:38.412Z,25.60
2019-02-02T01:49:07.730Z,25.40
2019-02-02T01:54:08.648Z,26.23
2019-02-02T01:56:37.597Z,25.93
2019-02-02T01:59:08.074Z,27.20
2019-02-02T02:01:37.232Z,28.27
2019-02-02T02:04:06.314Z,28.30
2019-02-02T02:06:35.311Z,27.47
2019-02-02T02:09:06.751Z,27.37
2019-02-02T02:11:35.955Z,27.50
2019-02-02T02:14:04.917Z,27.87
2019-02-02T02:16:33.811Z,27.63
2019-02-02T02:19:05.854Z,27.57
2019-02-02T02:21:34.892Z,28.60
2019-02-02T02:24:03.756Z,27.13
2019-02-02T02:26:33.041Z,28.43
2019-02-02T02:29:02.094Z,28.13
2019-02-02T02:31:30.975Z,27.93
2019-02-02T02:33:59.994Z,27.83
2019-02-02T02:36:28.943Z,28.50
2019-02-02T02:41:33.876Z,28.60
2019-02-02T02:44:02.858Z,28.03
2019-02-02T02:49:07.789Z,27.17
2019-02-02T02:51:36.656Z,29.10
2019-02-02T02:54:06.264Z,27.23
2019-02-02T02:56:35.328Z,28.40
2019-02-02T02:59:04.850Z,27.03
2019-02-02T03:04:16.464Z,27.50
2019-02-02T03:06:45.346Z,27.35
2019-02-02T03:09:14.617Z,27.90
2019-02-02T03:11:43.600Z,26.77
2019-02-02T03:14:12.467Z,26.80
2019-02-02T03:16:41.736Z,27.33
2019-02-02T03:19:10.863Z,26.07
2019-02-02T03:21:39.786Z,27.13
2019-02-02T03:24:08.772Z,27.27
2019-02-02T03:26:37.884Z,27.70
2019-02-02T03:29:07.080Z,26.53
2019-02-02T03:31:35.990Z,28.03
2019-02-02T03:34:05.217Z,27.43
2019-02-02T03:36:34.279Z,27.47
2019-02-02T03:39:04.546Z,27.37
2019-02-02T03:41:33.472Z,26.90
2019-02-02T03:44:02.493Z,26.33
2019-02-02T03:46:31.348Z,27.67
2019-02-02T03:49:00.278Z,25.73
2019-02-02T03:51:29.321Z,27.70
2019-02-02T03:54:08.136Z,27.73
2019-02-02T03:56:29.043Z,26.67
2019-02-02T03:59:06.039Z,26.87
2019-02-02T04:01:30.099Z,27.57
2019-02-02T04:03:59.707Z,27.07
2019-02-02T04:06:28.990Z,26.67
2019-02-02T04:08:58.010Z,28.07
2019-02-02T04:11:26.955Z,25.43
2019-02-02T04:13:56.008Z,26.63
2019-02-02T04:16:25.020Z,27.17
2019-02-02T04:18:54.229Z,27.20
2019-02-02T04:21:23.163Z,26.73
2019-02-02T04:23:52.117Z,28.27
2019-02-02T04:26:21.116Z,26.63
2019-02-02T04:28:50.493Z,28.47
2019-02-02T04:34:01.851Z,26.27
2019-02-02T04:36:30.821Z,28.60
2019-02-02T04:38:59.752Z,26.73
2019-02-02T04:41:28.784Z,27.90
2019-02-02T04:43:57.598Z,27.97
2019-02-02T04:46:26.660Z,27.77
2019-02-02T04:48:55.827Z,28.83
2019-02-02T04:51:24.816Z,28.77
2019-02-02T04:53:54.144Z,27.97
2019-02-02T04:56:23.032Z,28.27
2019-02-02T04:58:52.087Z,27.03
2019-02-02T05:01:21.091Z,28.40
2019-02-02T05:03:49.957Z,29.30
2019-02-02T05:06:18.793Z,27.77
2019-02-02T05:08:47.666Z,28.17
2019-02-02T05:11:16.701Z,28.20
2019-02-02T05:13:45.727Z,27.57
2019-02-02T05:16:14.950Z,28.50
2019-02-02T05:18:44.014Z,26.63
2019-02-02T05:21:13.026Z,29.27
2019-02-02T05:23:42.002Z,29.87
2019-02-02T05:26:11.094Z,27.87
2019-02-02T05:28:39.987Z,27.47
2019-02-02T05:31:08.974Z,29.00
2019-02-02T05:33:37.969Z,28.90
2019-02-02T05:36:07.033Z,29.87
2019-02-02T05:38:35.887Z,29.70
2019-02-02T05:41:04.876Z,27.03
2019-02-02T05:43:33.739Z,27.17
2019-02-02T05:46:02.646Z,28.23
2019-02-02T05:48:31.766Z,29.40
2019-02-02T05:51:00.707Z,28.00
2019-02-02T05:53:29.627Z,28.80
2019-02-02T05:55:58.526Z,29.60
2019-02-02T05:58:27.586Z,28.90
2019-02-02T06:00:56.890Z,27.77
2019-02-02T06:03:25.759Z,28.47
2019-02-02T06:05:54.680Z,28.03
2019-02-02T06:08:23.640Z,27.93
2019-02-02T06:13:35.447Z,29.27
2019-02-02T06:16:04.777Z,27.47
2019-02-02T06:18:33.733Z,27.63
2019-02-02T06:21:02.578Z,27.33
2019-02-02T06:23:31.525Z,27.70
2019-02-02T06:26:00.549Z,26.47
2019-02-02T06:28:29.445Z,28.47
2019-02-02T06:31:00.219Z,28.30
2019-02-02T06:33:29.047Z,28.07
2019-02-02T06:35:57.965Z,27.37
2019-02-02T06:38:27.000Z,27.90
2019-02-02T06:40:56.058Z,28.40
2019-02-02T06:43:24.979Z,28.50
2019-02-02T06:45:53.794Z,28.37
2019-02-02T06:48:22.702Z,27.33
2019-02-02T06:50:51.755Z,29.32
2019-02-02T06:53:20.770Z,27.40
2019-02-02T06:55:49.691Z,28.70
2019-02-02T06:58:18.569Z,27.40
2019-02-02T07:00:49.530Z,28.17
2019-02-02T07:03:18.389Z,28.50
2019-02-02T07:05:47.514Z,26.07
2019-02-02T07:11:10.762Z,27.60
2019-02-02T07:16:15.678Z,28.23
2019-02-02T07:18:44.574Z,27.80
2019-02-02T07:21:13.503Z,27.03
2019-02-02T07:23:42.454Z,27.77
2019-02-02T07:26:11.488Z,29.60
2019-02-02T07:28:40.335Z,28.43
2019-02-02T07:31:09.242Z,27.50
2019-02-02T07:33:38.347Z,28.03
2019-02-02T07:36:07.246Z,28.10
2019-02-02T07:38:36.180Z,27.77
2019-02-02T07:41:05.374Z,27.97
2019-02-02T07:43:34.221Z,27.87
2019-02-02T07:46:14.321Z,27.73
2019-02-02T07:48:33.808Z,26.23
2019-02-02T07:51:02.802Z,27.20
2019-02-02T07:53:31.630Z,27.63
2019-02-02T07:56:00.767Z,27.57
2019-02-02T07:58:29.793Z,27.77
2019-02-02T08:00:58.664Z,27.70
2019-02-02T08:03:28.031Z,26.73
2019-02-02T08:05:57.001Z,25.50
2019-02-02T08:08:25.855Z,26.73
2019-02-02T08:10:55.272Z,27.35
2019-02-02T08:13:24.281Z,27.23
2019-02-02T08:15:53.431Z,27.10
2019-02-02T08:18:22.277Z,27.83
2019-02-02T08:20:51.352Z,28.80
2019-02-02T08:23:20.270Z,28.33
2019-02-02T08:25:49.162Z,26.57
2019-02-02T08:28:18.082Z,29.27
2019-02-02T08:30:52.536Z,29.03
2019-02-02T08:33:17.817Z,28.20
2019-02-02T08:35:46.757Z,28.17
2019-02-02T08:38:15.817Z,27.87
2019-02-02T08:40:48.821Z,28.10
2019-02-02T08:43:18.092Z,27.83
2019-02-02T08:45:46.997Z,28.77
2019-02-02T08:48:15.842Z,29.17
2019-02-02T08:50:44.823Z,26.33
2019-02-02T08:53:15.680Z,29.10
2019-02-02T08:55:47.358Z,27.90
2019-02-02T08:58:17.529Z,27.67
2019-02-02T09:00:46.397Z,27.63
2019-02-02T09:03:15.347Z,29.00
2019-02-02T09:05:44.483Z,28.67
2019-02-02T09:08:13.722Z,29.87
2019-02-02T09:10:42.683Z,28.33
2019-02-02T09:13:11.545Z,28.37
2019-02-02T09:15:47.376Z,28.53
2019-02-02T09:18:16.671Z,29.77
2019-02-02T09:23:26.601Z,27.67
2019-02-02T09:25:55.540Z,28.13
2019-02-02T09:28:24.524Z,29.07
2019-02-02T09:30:53.439Z,28.73
2019-02-02T09:33:22.322Z,30.40
2019-02-02T09:35:51.241Z,28.80
2019-02-02T09:38:20.335Z,29.83
2019-02-02T09:40:49.499Z,28.60
2019-02-02T09:43:18.459Z,27.20
2019-02-02T09:45:47.419Z,29.00
2019-02-02T09:48:16.346Z,27.37
2019-02-02T09:50:45.242Z,29.53
2019-02-02T09:53:14.107Z,29.17
2019-02-02T09:55:42.881Z,28.93
2019-02-02T09:58:12.501Z,29.33
2019-02-02T10:00:41.463Z,30.43
2019-02-02T10:03:10.260Z,30.27
2019-02-02T10:05:39.126Z,28.17
2019-02-02T10:08:08.017Z,29.17
2019-02-02T10:10:37.117Z,30.53
2019-02-02T10:13:07.052Z,28.33
2019-02-02T10:15:36.460Z,29.77
2019-02-02T10:18:05.969Z,28.87
2019-02-02T10:20:34.939Z,29.70
2019-02-02T10:23:03.737Z,30.53
2019-02-02T10:25:32.780Z,29.40
2019-02-02T10:28:01.716Z,29.77
2019-02-02T10:30:32.751Z,29.50
2019-02-02T10:33:01.637Z,30.57
2019-02-02T10:35:30.816Z,28.50
2019-02-02T10:37:59.724Z,29.37
2019-02-02T10:40:30.004Z,30.70
2019-02-02T10:42:59.333Z,30.30
2019-02-02T10:45:28.239Z,29.30
2019-02-02T10:47:57.571Z,29.00
2019-02-02T10:50:27.092Z,29.17
2019-02-02T10:52:55.990Z,31.10
2019-02-02T10:55:24.953Z,28.97
2019-02-02T10:57:53.920Z,30.93
2019-02-02T11:00:25.127Z,30.23
2019-02-02T11:02:54.121Z,28.40
2019-02-02T11:05:24.569Z,30.17
2019-02-02T11:07:54.489Z,28.70
2019-02-02T11:10:28.423Z,28.03
2019-02-02T11:12:57.587Z,29.50
2019-02-02T11:15:26.830Z,30.47
2019-02-02T11:17:56.036Z,29.90
2019-02-02T11:20:29.818Z,29.48
2019-02-02T11:22:59.249Z,30.97
2019-02-02T11:25:28.432Z,30.43
2019-02-02T11:27:58.138Z,29.50
2019-02-02T11:30:28.513Z,29.23
2019-02-02T11:32:57.778Z,30.27
2019-02-02T11:35:26.735Z,29.20
2019-02-02T11:37:55.726Z,31.03
2019-02-02T11:40:26.849Z,30.07
2019-02-02T11:42:56.226Z,28.80
2019-02-02T11:45:25.187Z,29.43
2019-02-02T11:47:54.124Z,29.77
2019-02-02T11:50:23.717Z,29.90
2019-02-02T11:52:52.650Z,31.87
2019-02-02T11:55:21.643Z,30.07
2019-02-02T11:57:50.607Z,29.97
2019-02-02T12:00:27.197Z,30.07
2019-02-02T12:02:56.249Z,30.37
2019-02-02T12:05:26.709Z,30.27
2019-02-02T12:07:55.786Z,30.07
2019-02-02T12:10:25.846Z,29.40
2019-02-02T12:12:54.773Z,30.10
2019-02-02T12:15:23.762Z,30.33
2019-02-02T12:17:52.713Z,29.90
2019-02-02T12:20:21.891Z,29.63
2019-02-02T12:22:50.766Z,30.97
2019-02-02T12:25:19.679Z,30.03
2019-02-02T12:27:48.546Z,29.40
2019-02-02T12:30:25.762Z,29.53
2019-02-02T12:32:54.555Z,29.43
2019-02-02T12:35:24.655Z,28.73
2019-02-02T12:37:53.611Z,30.07
2019-02-02T12:40:22.701Z,29.52
2019-02-02T12:42:51.709Z,28.83
2019-02-02T12:45:23.495Z,30.60
2019-02-02T12:47:52.390Z,28.87
2019-02-02T12:50:21.295Z,29.63
2019-02-02T12:52:50.365Z,29.73
2019-02-02T12:55:19.383Z,29.90
2019-02-02T12:57:48.237Z,28.67
2019-02-02T13:00:18.088Z,29.90
2019-02-02T13:02:47.239Z,30.20
2019-02-02T13:05:17.530Z,28.30
2019-02-02T13:07:46.678Z,29.40
2019-02-02T13:10:24.257Z,29.20
2019-02-02T13:12:51.661Z,29.17
2019-02-02T13:15:20.522Z,29.63
2019-02-02T13:17:50.199Z,31.47
2019-02-02T13:20:19.381Z,31.73
2019-02-02T13:22:48.352Z,30.03
2019-02-02T13:25:18.948Z,30.90
2019-02-02T13:27:47.830Z,31.87
2019-02-02T13:30:22.206Z,31.83
2019-02-02T13:32:51.212Z,30.70
2019-02-02T13:35:20.762Z,31.70
2019-02-02T13:37:49.726Z,30.67
2019-02-02T13:40:19.794Z,31.67
2019-02-02T13:42:48.608Z,33.27
2019-02-02T13:45:18.665Z,31.50
2019-02-02T13:47:48.005Z,33.30
2019-02-02T13:50:17.495Z,31.77
2019-02-02T13:52:47.042Z,31.73
2019-02-02T13:55:16.018Z,31.83
2019-02-02T13:57:44.936Z,33.17
2019-02-02T14:00:16.821Z,32.87
2019-02-02T14:02:45.751Z,32.40
2019-02-02T14:05:15.946Z,33.67
2019-02-02T14:07:44.812Z,33.10
2019-02-02T14:10:16.392Z,32.97
2019-02-02T14:12:45.295Z,32.70
2019-02-02T14:15:14.198Z,31.10
2019-02-02T14:17:43.036Z,32.30
2019-02-02T14:20:12.096Z,29.97
2019-02-02T14:22:41.351Z,32.07
2019-02-02T14:25:10.731Z,30.00
2019-02-02T14:27:40.438Z,30.73
2019-02-02T14:30:14.973Z,30.07
2019-02-02T14:32:50.507Z,29.87
2019-02-02T14:35:20.772Z,28.87
2019-02-02T14:37:49.710Z,29.57
2019-02-02T14:40:19.519Z,29.20
2019-02-02T14:42:49.000Z,29.23
2019-02-02T14:45:19.859Z,29.47
2019-02-02T14:47:48.708Z,30.67
2019-02-02T14:50:19.442Z,28.00
2019-02-02T14:52:48.732Z,29.20
2019-02-02T14:55:19.791Z,27.70
2019-02-02T14:57:48.597Z,28.83
2019-02-02T15:00:19.984Z,29.60
2019-02-02T15:02:49.207Z,28.73
2019-02-02T15:05:20.917Z,28.23
2019-02-02T15:07:52.741Z,28.13
2019-02-02T15:10:22.605Z,27.63
2019-02-02T15:12:52.037Z,26.70
2019-02-02T15:15:21.027Z,26.17
2019-02-02T15:17:49.948Z,26.50
2019-02-02T15:20:27.011Z,27.13
2019-02-02T15:22:55.771Z,26.40
2019-02-02T15:25:24.714Z,27.10
2019-02-02T15:27:53.528Z,27.37
2019-02-02T15:30:23.510Z,25.70
2019-02-02T15:32:52.279Z,26.27
2019-02-02T15:35:21.325Z,28.37
2019-02-02T15:37:50.230Z,27.53
2019-02-02T15:40:19.322Z,27.83
2019-02-02T15:42:48.294Z,29.23
2019-02-02T15:45:19.490Z,30.60
2019-02-02T15:47:48.640Z,31.23
2019-02-02T15:50:17.623Z,32.60
2019-02-02T15:52:46.543Z,31.50
2019-02-02T15:55:17.489Z,32.27
2019-02-02T15:57:46.479Z,31.33
2019-02-02T16:00:26.221Z,32.10
2019-02-02T16:02:55.218Z,31.80
2019-02-02T16:05:24.252Z,31.83
2019-02-02T16:07:53.165Z,31.60
2019-02-02T16:10:24.546Z,30.63
2019-02-02T16:12:53.821Z,32.40
2019-02-02T16:15:22.764Z,30.20
2019-02-02T16:17:51.732Z,30.47
2019-02-02T16:20:23.005Z,30.47
2019-02-02T16:22:52.070Z,31.23
2019-02-02T16:25:21.814Z,30.50
2019-02-02T16:27:50.727Z,31.03
2019-02-02T16:30:22.564Z,31.33
2019-02-02T16:32:51.497Z,33.13
2019-02-02T16:35:20.537Z,32.83
2019-02-02T16:37:49.423Z,32.43
2019-02-02T16:40:20.286Z,33.03
2019-02-02T16:42:49.786Z,32.90
2019-02-02T16:45:20.904Z,33.20
2019-02-02T16:47:49.911Z,32.47
2019-02-02T16:50:19.248Z,32.10
2019-02-02T16:52:48.870Z,34.20
2019-02-02T16:55:18.555Z,33.60
2019-02-02T16:57:47.638Z,33.63
2019-02-02T17:00:21.642Z,34.07
2019-02-02T17:02:50.829Z,33.73
2019-02-02T17:05:19.787Z,33.50
2019-02-02T17:07:48.974Z,32.80
2019-02-02T17:10:20.136Z,32.60
2019-02-02T17:12:49.287Z,32.73
2019-02-02T17:15:18.377Z,31.67
2019-02-02T17:17:47.774Z,33.77
2019-02-02T17:20:19.046Z,32.63
2019-02-02T17:22:48.094Z,32.27
2019-02-02T17:25:18.616Z,31.17
2019-02-02T17:27:48.092Z,32.60
2019-02-02T17:30:20.193Z,32.03
2019-02-02T17:32:52.248Z,30.63
2019-02-02T17:35:24.076Z,30.00
2019-02-02T17:37:52.806Z,31.20
2019-02-02T17:40:24.350Z,29.50
2019-02-02T17:42:55.439Z,29.53
2019-02-02T17:45:24.230Z,28.63
2019-02-02T17:47:53.323Z,31.13
2019-02-02T17:50:24.079Z,29.67
2019-02-02T17:52:53.262Z,30.43
2019-02-02T17:55:22.534Z,30.90
2019-02-02T17:57:54.856Z,30.40
2019-02-02T18:00:33.678Z,31.43
2019-02-02T18:03:02.601Z,31.13
2019-02-02T18:05:31.420Z,33.20
2019-02-02T18:08:00.443Z,32.20
2019-02-02T18:10:29.293Z,33.33
2019-02-02T18:12:58.497Z,30.93
2019-02-02T18:15:27.388Z,34.43
2019-02-02T18:17:56.413Z,32.67
2019-02-02T18:20:25.565Z,32.97
2019-02-02T18:22:54.450Z,32.53
2019-02-02T18:25:23.683Z,34.07
2019-02-02T18:27:52.519Z,32.93
2019-02-02T18:30:22.384Z,32.50
2019-02-02T18:32:51.418Z,32.63
2019-02-02T18:35:20.833Z,32.70
2019-02-02T18:37:49.938Z,33.13
2019-02-02T18:40:21.575Z,33.97
2019-02-02T18:42:50.799Z,32.50
2019-02-02T18:45:24.115Z,35.33
2019-02-02T18:47:55.789Z,33.60
2019-02-02T18:50:25.044Z,33.73
2019-02-02T18:52:54.295Z,33.77
2019-02-02T18:55:26.081Z,33.67
2019-02-02T18:57:55.230Z,32.97
2019-02-02T19:00:24.483Z,34.27
2019-02-02T19:02:53.685Z,33.47
2019-02-02T19:05:22.736Z,35.10
2019-02-02T19:07:51.716Z,35.70
2019-02-02T19:10:26.441Z,34.53
2019-02-02T19:12:55.730Z,33.67
2019-02-02T19:15:24.726Z,35.57
2019-02-02T19:17:53.729Z,35.13
2019-02-02T19:20:23.257Z,34.90
2019-02-02T19:22:52.242Z,35.50
2019-02-02T19:25:21.338Z,38.07
2019-02-02T19:27:50.261Z,36.57
2019-02-02T19:30:21.842Z,36.43
2019-02-02T19:32:50.713Z,35.23
2019-02-02T19:35:19.806Z,35.00
2019-02-02T19:37:48.706Z,37.40
2019-02-02T19:40:18.059Z,34.48
2019-02-02T19:42:48.995Z,34.37
2019-02-02T19:45:20.042Z,36.03
2019-02-02T19:47:49.132Z,35.50
2019-02-02T19:50:21.062Z,37.67
2019-02-02T19:52:50.126Z,35.57
2019-02-02T19:55:19.460Z,35.77
2019-02-02T19:57:48.482Z,35.00
2019-02-02T20:00:19.823Z,33.87
2019-02-02T20:02:49.087Z,36.20
2019-02-02T20:05:28.294Z,36.28
2019-02-02T20:07:52.696Z,34.90
2019-02-02T20:10:21.965Z,37.03
2019-02-02T20:12:52.114Z,34.47
2019-02-02T20:15:23.180Z,34.37
2019-02-02T20:17:52.235Z,34.60
2019-02-02T20:20:22.905Z,34.90
2019-02-02T20:22:52.047Z,35.00
2019-02-02T20:25:20.986Z,37.77
2019-02-02T20:27:50.027Z,37.10
2019-02-02T20:30:22.626Z,38.00
2019-02-02T20:32:51.566Z,37.27
2019-02-02T20:35:20.821Z,35.70
2019-02-02T20:37:49.932Z,37.43
2019-02-02T20:40:20.665Z,37.63
2019-02-02T20:42:49.966Z,38.10
2019-02-02T20:45:21.689Z,37.33
2019-02-02T20:47:51.283Z,44.40
2019-02-02T20:50:20.273Z,39.83
2019-02-02T20:52:49.362Z,37.43
2019-02-02T20:55:21.157Z,37.20
2019-02-02T20:57:50.469Z,37.57
2019-02-02T21:00:21.888Z,35.67
2019-02-02T21:02:50.820Z,38.37
2019-02-02T21:05:19.759Z,36.20
2019-02-02T21:07:48.941Z,35.87
2019-02-02T21:10:19.961Z,36.13
2019-02-02T21:12:49.004Z,34.90
2019-02-02T21:15:18.209Z,36.57
2019-02-02T21:17:47.342Z,34.47
2019-02-02T21:20:18.482Z,35.57
2019-02-02T21:22:47.543Z,35.17
2019-02-02T21:25:17.202Z,36.23
2019-02-02T21:27:46.462Z,34.90
2019-02-02T21:30:20.705Z,36.13
2019-02-02T21:32:49.580Z,35.10
2019-02-02T21:35:18.592Z,35.13
2019-02-02T21:37:47.900Z,35.30
2019-02-02T21:40:18.772Z,35.20
2019-02-02T21:42:47.811Z,35.40
2019-02-02T21:45:17.135Z,37.03
2019-02-02T21:47:46.122Z,37.17
2019-02-02T21:50:17.400Z,35.62
2019-02-02T21:52:46.794Z,35.23
2019-02-02T21:55:17.827Z,33.67
2019-02-02T21:57:47.145Z,35.50
2019-02-02T22:00:25.743Z,33.47
2019-02-02T22:02:55.951Z,36.03
2019-02-02T22:05:24.872Z,33.73
2019-02-02T22:07:53.777Z,33.20
2019-02-02T22:10:26.181Z,33.17
2019-02-02T22:12:55.770Z,33.90
2019-02-02T22:15:25.124Z,32.33
2019-02-02T22:17:54.209Z,32.87
2019-02-02T22:20:25.976Z,32.87
2019-02-02T22:22:55.084Z,31.47
2019-02-02T22:25:26.697Z,30.27
2019-02-02T22:27:55.516Z,30.80
2019-02-02T22:30:29.071Z,29.80
2019-02-02T22:32:58.429Z,30.40
2019-02-02T22:35:27.335Z,27.97
2019-02-02T22:37:56.662Z,29.77
2019-02-02T22:40:26.788Z,29.97
2019-02-02T22:42:56.013Z,30.10
2019-02-02T22:45:26.946Z,30.00
2019-02-02T22:47:56.030Z,29.60
2019-02-02T22:50:26.368Z,32.15
2019-02-02T22:52:55.639Z,31.03
2019-02-02T22:55:25.062Z,30.93
2019-02-02T22:57:54.436Z,30.83
2019-02-02T23:00:48.071Z,31.33
2019-02-02T23:03:18.443Z,29.17
2019-02-02T23:06:39.248Z,30.90
2019-02-02T23:09:43.743Z,29.80
2019-02-02T23:12:21.716Z,27.57
2019-02-02T23:15:15.316Z,28.43
2019-02-02T23:17:44.526Z,28.33
2019-02-02T23:20:13.532Z,27.55
2019-02-02T23:22:42.576Z,28.10
2019-02-02T23:25:11.603Z,25.70
2019-02-02T23:27:40.464Z,26.47
2019-02-02T23:30:10.450Z,27.80
2019-02-02T23:32:39.300Z,27.80
2019-02-02T23:35:08.942Z,28.57
2019-02-02T23:37:37.846Z,27.73
2019-02-02T23:40:07.843Z,26.27
2019-02-02T23:42:36.656Z,25.37
2019-02-02T23:45:06.745Z,23.83
2019-02-02T23:47:36.516Z,22.30
2019-02-02T23:50:05.973Z,22.80
2019-02-02T23:52:36.328Z,23.27
2019-02-02T23:55:05.951Z,22.93
2019-02-02T23:57:35.313Z,22.70
